sensor_id;sensor_type;location;lat;lon;timestamp;P1;durP1;ratioP1;P2;durP2;ratioP2
7291;SDS011;3687;47.648;8.204;2022-07-23T00:00:08;5.50;;;5.00;;
7291;SDS011;3687;47.648;8.204;2022-07-23T00:02:34;4.57;;;4.17;;
7291;SDS011;3687;47.648;8.204;2022-07-23T00:05:00;5.03;;;4.63;;
7291;SDS011;3687;47.648;8.204;2022-07-23T00:07:26;5.37;;;4.70;;
7291;SDS011;3687;47.648;8.204;2022-07-23T00:09:52;4.60;;;4.30;;
7291;SDS011;3687;47.648;8.204;2022-07-23T00:12:17;5.60;;;5.10;;
7291;SDS011;3687;47.648;8.204;2022-07-23T00:14:43;5.33;;;4.83;;
7291;SDS011;3687;47.648;8.204;2022-07-23T00:17:08;5.60;;;4.93;;
7291;SDS011;3687;47.648;8.204;2022-07-23T00:19:34;5.60;;;5.20;;
7291;SDS011;3687;47.648;8.204;2022-07-23T00:22:00;5.33;;;4.87;;
7291;SDS011;3687;47.648;8.204;2022-07-23T00:24:26;7.40;;;5.37;;
7291;SDS011;3687;47.648;8.204;2022-07-23T00:26:51;7.17;;;4.97;;
7291;SDS011;3687;47.648;8.204;2022-07-23T00:29:17;5.30;;;4.80;;
7291;SDS011;3687;47.648;8.204;2022-07-23T00:31:42;5.60;;;4.53;;
7291;SDS011;3687;47.648;8.204;2022-07-23T00:34:08;5.20;;;4.80;;
7291;SDS011;3687;47.648;8.204;2022-07-23T00:36:34;6.10;;;5.50;;
7291;SDS011;3687;47.648;8.204;2022-07-23T00:38:59;5.90;;;5.40;;
7291;SDS011;3687;47.648;8.204;2022-07-23T00:41:25;5.53;;;5.03;;
7291;SDS011;3687;47.648;8.204;2022-07-23T00:43:50;5.97;;;4.87;;
7291;SDS011;3687;47.648;8.204;2022-07-23T00:46:22;5.90;;;5.10;;
7291;SDS011;3687;47.648;8.204;2022-07-23T00:48:48;5.30;;;4.80;;
7291;SDS011;3687;47.648;8.204;2022-07-23T00:51:16;7.33;;;5.33;;
7291;SDS011;3687;47.648;8.204;2022-07-23T00:53:43;5.63;;;4.70;;
7291;SDS011;3687;47.648;8.204;2022-07-23T00:56:09;5.13;;;4.63;;
7291;SDS011;3687;47.648;8.204;2022-07-23T00:58:35;5.70;;;5.20;;
7291;SDS011;3687;47.648;8.204;2022-07-23T01:01:04;5.27;;;4.70;;
7291;SDS011;3687;47.648;8.204;2022-07-23T01:03:29;4.67;;;4.23;;
7291;SDS011;3687;47.648;8.204;2022-07-23T01:05:55;4.90;;;4.50;;
7291;SDS011;3687;47.648;8.204;2022-07-23T01:08:21;6.77;;;4.80;;
7291;SDS011;3687;47.648;8.204;2022-07-23T01:10:47;5.70;;;4.53;;
7291;SDS011;3687;47.648;8.204;2022-07-23T01:13:13;5.80;;;5.30;;
7291;SDS011;3687;47.648;8.204;2022-07-23T01:15:39;5.63;;;5.07;;
7291;SDS011;3687;47.648;8.204;2022-07-23T01:18:05;5.40;;;4.90;;
7291;SDS011;3687;47.648;8.204;2022-07-23T01:20:32;6.20;;;5.40;;
7291;SDS011;3687;47.648;8.204;2022-07-23T01:22:58;6.17;;;5.13;;
7291;SDS011;3687;47.648;8.204;2022-07-23T01:25:23;5.10;;;4.63;;
7291;SDS011;3687;47.648;8.204;2022-07-23T01:27:51;4.97;;;4.47;;
7291;SDS011;3687;47.648;8.204;2022-07-23T01:30:17;5.33;;;4.83;;
7291;SDS011;3687;47.648;8.204;2022-07-23T01:32:43;5.43;;;4.90;;
7291;SDS011;3687;47.648;8.204;2022-07-23T01:35:09;5.30;;;4.90;;
7291;SDS011;3687;47.648;8.204;2022-07-23T01:37:35;5.93;;;5.33;;
7291;SDS011;3687;47.648;8.204;2022-07-23T01:40:01;5.10;;;4.73;;
7291;SDS011;3687;47.648;8.204;2022-07-23T01:42:27;5.07;;;4.57;;
7291;SDS011;3687;47.648;8.204;2022-07-23T01:44:53;5.07;;;4.53;;
7291;SDS011;3687;47.648;8.204;2022-07-23T01:47:20;5.30;;;4.90;;
7291;SDS011;3687;47.648;8.204;2022-07-23T01:49:45;5.37;;;4.87;;
7291;SDS011;3687;47.648;8.204;2022-07-23T01:52:11;5.00;;;4.50;;
7291;SDS011;3687;47.648;8.204;2022-07-23T01:54:37;5.80;;;5.30;;
7291;SDS011;3687;47.648;8.204;2022-07-23T01:57:04;5.10;;;4.70;;
7291;SDS011;3687;47.648;8.204;2022-07-23T01:59:30;5.60;;;5.10;;
7291;SDS011;3687;47.648;8.204;2022-07-23T02:01:55;5.97;;;5.43;;
7291;SDS011;3687;47.648;8.204;2022-07-23T02:04:21;6.13;;;5.30;;
7291;SDS011;3687;47.648;8.204;2022-07-23T02:06:48;5.23;;;4.73;;
7291;SDS011;3687;47.648;8.204;2022-07-23T02:09:14;4.80;;;4.40;;
7291;SDS011;3687;47.648;8.204;2022-07-23T02:11:40;5.40;;;4.93;;
7291;SDS011;3687;47.648;8.204;2022-07-23T02:14:06;5.10;;;4.70;;
7291;SDS011;3687;47.648;8.204;2022-07-23T02:16:32;5.90;;;5.33;;
7291;SDS011;3687;47.648;8.204;2022-07-23T02:18:58;7.00;;;5.33;;
7291;SDS011;3687;47.648;8.204;2022-07-23T02:21:23;6.30;;;5.33;;
7291;SDS011;3687;47.648;8.204;2022-07-23T02:23:49;5.97;;;5.37;;
7291;SDS011;3687;47.648;8.204;2022-07-23T02:26:14;5.07;;;4.67;;
7291;SDS011;3687;47.648;8.204;2022-07-23T02:28:40;5.43;;;4.93;;
7291;SDS011;3687;47.648;8.204;2022-07-23T02:31:05;5.50;;;5.00;;
7291;SDS011;3687;47.648;8.204;2022-07-23T02:33:32;6.03;;;5.10;;
7291;SDS011;3687;47.648;8.204;2022-07-23T02:35:58;5.67;;;5.17;;
7291;SDS011;3687;47.648;8.204;2022-07-23T02:38:23;5.57;;;5.03;;
7291;SDS011;3687;47.648;8.204;2022-07-23T02:40:49;7.53;;;5.40;;
7291;SDS011;3687;47.648;8.204;2022-07-23T02:43:15;6.53;;;5.80;;
7291;SDS011;3687;47.648;8.204;2022-07-23T02:45:40;6.10;;;5.13;;
7291;SDS011;3687;47.648;8.204;2022-07-23T02:48:06;6.00;;;5.50;;
7291;SDS011;3687;47.648;8.204;2022-07-23T02:50:31;6.03;;;5.53;;
7291;SDS011;3687;47.648;8.204;2022-07-23T02:52:57;6.03;;;5.53;;
7291;SDS011;3687;47.648;8.204;2022-07-23T02:55:22;6.63;;;6.03;;
7291;SDS011;3687;47.648;8.204;2022-07-23T02:57:48;6.30;;;5.70;;
7291;SDS011;3687;47.648;8.204;2022-07-23T03:00:13;6.23;;;5.73;;
7291;SDS011;3687;47.648;8.204;2022-07-23T03:02:39;6.07;;;5.57;;
7291;SDS011;3687;47.648;8.204;2022-07-23T03:05:05;6.10;;;5.50;;
7291;SDS011;3687;47.648;8.204;2022-07-23T03:07:46;5.90;;;5.30;;
7291;SDS011;3687;47.648;8.204;2022-07-23T03:10:11;6.03;;;5.53;;
7291;SDS011;3687;47.648;8.204;2022-07-23T03:12:37;6.17;;;5.60;;
7291;SDS011;3687;47.648;8.204;2022-07-23T03:15:03;8.73;;;5.57;;
7291;SDS011;3687;47.648;8.204;2022-07-23T03:17:29;6.20;;;5.70;;
7291;SDS011;3687;47.648;8.204;2022-07-23T03:19:54;6.00;;;5.50;;
7291;SDS011;3687;47.648;8.204;2022-07-23T03:22:20;5.60;;;5.13;;
7291;SDS011;3687;47.648;8.204;2022-07-23T04:30:59;7.60;;;6.30;;
7291;SDS011;3687;47.648;8.204;2022-07-23T04:33:24;7.93;;;5.57;;
7291;SDS011;3687;47.648;8.204;2022-07-23T04:35:50;8.60;;;5.90;;
7291;SDS011;3687;47.648;8.204;2022-07-23T04:38:15;8.03;;;5.63;;
7291;SDS011;3687;47.648;8.204;2022-07-23T04:40:41;8.17;;;5.73;;
7291;SDS011;3687;47.648;8.204;2022-07-23T04:43:07;7.97;;;5.47;;
7291;SDS011;3687;47.648;8.204;2022-07-23T04:45:32;7.43;;;5.33;;
7291;SDS011;3687;47.648;8.204;2022-07-23T04:47:58;7.07;;;5.60;;
7291;SDS011;3687;47.648;8.204;2022-07-23T04:50:23;5.73;;;5.17;;
7291;SDS011;3687;47.648;8.204;2022-07-23T04:52:49;6.97;;;5.83;;
7291;SDS011;3687;47.648;8.204;2022-07-23T04:55:15;6.77;;;5.70;;
7291;SDS011;3687;47.648;8.204;2022-07-23T04:57:41;7.93;;;5.93;;
7291;SDS011;3687;47.648;8.204;2022-07-23T05:00:06;6.57;;;5.97;;
7291;SDS011;3687;47.648;8.204;2022-07-23T05:02:33;7.07;;;5.90;;
7291;SDS011;3687;47.648;8.204;2022-07-23T05:04:58;5.83;;;5.33;;
7291;SDS011;3687;47.648;8.204;2022-07-23T05:07:24;6.03;;;5.37;;
7291;SDS011;3687;47.648;8.204;2022-07-23T05:09:49;6.23;;;5.67;;
7291;SDS011;3687;47.648;8.204;2022-07-23T05:12:15;6.53;;;5.27;;
7291;SDS011;3687;47.648;8.204;2022-07-23T05:14:40;6.30;;;5.77;;
7291;SDS011;3687;47.648;8.204;2022-07-23T05:17:06;5.97;;;5.23;;
7291;SDS011;3687;47.648;8.204;2022-07-23T05:19:33;6.33;;;5.43;;
7291;SDS011;3687;47.648;8.204;2022-07-23T05:21:59;6.60;;;5.90;;
7291;SDS011;3687;47.648;8.204;2022-07-23T05:24:24;7.20;;;5.67;;
7291;SDS011;3687;47.648;8.204;2022-07-23T05:26:50;6.03;;;5.23;;
7291;SDS011;3687;47.648;8.204;2022-07-23T05:29:16;5.73;;;5.23;;
7291;SDS011;3687;47.648;8.204;2022-07-23T05:31:41;5.97;;;5.40;;
7291;SDS011;3687;47.648;8.204;2022-07-23T05:34:07;5.50;;;5.00;;
7291;SDS011;3687;47.648;8.204;2022-07-23T05:36:32;5.73;;;5.23;;
7291;SDS011;3687;47.648;8.204;2022-07-23T05:38:58;8.40;;;5.80;;
7291;SDS011;3687;47.648;8.204;2022-07-23T05:41:24;5.87;;;5.20;;
7291;SDS011;3687;47.648;8.204;2022-07-23T05:43:49;5.87;;;5.30;;
7291;SDS011;3687;47.648;8.204;2022-07-23T05:46:15;6.00;;;5.40;;
7291;SDS011;3687;47.648;8.204;2022-07-23T05:48:41;5.80;;;5.30;;
7291;SDS011;3687;47.648;8.204;2022-07-23T05:51:07;5.67;;;5.17;;
7291;SDS011;3687;47.648;8.204;2022-07-23T05:53:33;7.60;;;5.33;;
7291;SDS011;3687;47.648;8.204;2022-07-23T05:55:59;5.57;;;5.07;;
7291;SDS011;3687;47.648;8.204;2022-07-23T05:58:25;6.20;;;5.60;;
7291;SDS011;3687;47.648;8.204;2022-07-23T06:00:51;7.53;;;5.10;;
7291;SDS011;3687;47.648;8.204;2022-07-23T06:03:16;6.70;;;5.47;;
7291;SDS011;3687;47.648;8.204;2022-07-23T06:05:42;5.33;;;4.83;;
7291;SDS011;3687;47.648;8.204;2022-07-23T06:08:08;6.20;;;5.60;;
7291;SDS011;3687;47.648;8.204;2022-07-23T06:10:33;5.80;;;5.27;;
7291;SDS011;3687;47.648;8.204;2022-07-23T06:12:59;5.83;;;5.30;;
7291;SDS011;3687;47.648;8.204;2022-07-23T06:15:24;5.67;;;5.17;;
7291;SDS011;3687;47.648;8.204;2022-07-23T06:17:50;6.00;;;5.40;;
7291;SDS011;3687;47.648;8.204;2022-07-23T06:20:15;5.70;;;5.30;;
7291;SDS011;3687;47.648;8.204;2022-07-23T06:22:41;4.97;;;4.57;;
7291;SDS011;3687;47.648;8.204;2022-07-23T06:25:07;6.40;;;4.70;;
7291;SDS011;3687;47.648;8.204;2022-07-23T06:27:33;4.90;;;4.50;;
7291;SDS011;3687;47.648;8.204;2022-07-23T06:29:59;4.93;;;4.53;;
7291;SDS011;3687;47.648;8.204;2022-07-23T06:32:24;6.33;;;5.43;;
7291;SDS011;3687;47.648;8.204;2022-07-23T06:34:50;6.07;;;5.57;;
7291;SDS011;3687;47.648;8.204;2022-07-23T06:37:15;5.50;;;5.00;;
7291;SDS011;3687;47.648;8.204;2022-07-23T06:39:41;5.77;;;5.23;;
7291;SDS011;3687;47.648;8.204;2022-07-23T06:42:07;6.10;;;5.50;;
7291;SDS011;3687;47.648;8.204;2022-07-23T06:44:32;6.13;;;4.70;;
7291;SDS011;3687;47.648;8.204;2022-07-23T06:46:58;5.30;;;4.90;;
7291;SDS011;3687;47.648;8.204;2022-07-23T06:49:23;5.47;;;5.07;;
7291;SDS011;3687;47.648;8.204;2022-07-23T06:51:49;6.53;;;5.43;;
7291;SDS011;3687;47.648;8.204;2022-07-23T06:54:14;6.10;;;5.50;;
7291;SDS011;3687;47.648;8.204;2022-07-23T06:56:40;6.07;;;5.57;;
7291;SDS011;3687;47.648;8.204;2022-07-23T06:59:06;6.40;;;5.80;;
7291;SDS011;3687;47.648;8.204;2022-07-23T07:01:32;5.70;;;5.30;;
7291;SDS011;3687;47.648;8.204;2022-07-23T07:03:57;5.97;;;5.23;;
7291;SDS011;3687;47.648;8.204;2022-07-23T07:06:23;6.17;;;5.57;;
7291;SDS011;3687;47.648;8.204;2022-07-23T07:08:48;6.30;;;5.70;;
7291;SDS011;3687;47.648;8.204;2022-07-23T07:11:14;6.83;;;6.13;;
7291;SDS011;3687;47.648;8.204;2022-07-23T07:13:39;6.17;;;5.57;;
7291;SDS011;3687;47.648;8.204;2022-07-23T07:16:05;5.73;;;5.27;;
7291;SDS011;3687;47.648;8.204;2022-07-23T07:18:30;5.87;;;5.37;;
7291;SDS011;3687;47.648;8.204;2022-07-23T07:20:56;5.97;;;5.40;;
7291;SDS011;3687;47.648;8.204;2022-07-23T07:23:22;5.83;;;5.27;;
7291;SDS011;3687;47.648;8.204;2022-07-23T07:25:48;5.70;;;5.20;;
7291;SDS011;3687;47.648;8.204;2022-07-23T07:28:14;6.17;;;5.57;;
7291;SDS011;3687;47.648;8.204;2022-07-23T07:30:39;6.10;;;5.60;;
7291;SDS011;3687;47.648;8.204;2022-07-23T07:33:05;6.27;;;5.77;;
7291;SDS011;3687;47.648;8.204;2022-07-23T07:35:30;7.27;;;6.57;;
7291;SDS011;3687;47.648;8.204;2022-07-23T07:37:57;5.83;;;5.27;;
7291;SDS011;3687;47.648;8.204;2022-07-23T07:40:24;6.80;;;6.20;;
7291;SDS011;3687;47.648;8.204;2022-07-23T07:42:51;6.27;;;5.70;;
7291;SDS011;3687;47.648;8.204;2022-07-23T07:45:21;6.40;;;5.80;;
7291;SDS011;3687;47.648;8.204;2022-07-23T07:47:47;8.63;;;6.83;;
7291;SDS011;3687;47.648;8.204;2022-07-23T07:50:13;7.67;;;6.63;;
7291;SDS011;3687;47.648;8.204;2022-07-23T07:52:39;6.87;;;6.17;;
7291;SDS011;3687;47.648;8.204;2022-07-23T07:55:05;6.53;;;5.93;;
7291;SDS011;3687;47.648;8.204;2022-07-23T07:57:32;6.47;;;5.97;;
7291;SDS011;3687;47.648;8.204;2022-07-23T07:59:58;6.57;;;5.73;;
7291;SDS011;3687;47.648;8.204;2022-07-23T08:02:24;7.23;;;6.53;;
7291;SDS011;3687;47.648;8.204;2022-07-23T08:04:49;6.70;;;6.10;;
7291;SDS011;3687;47.648;8.204;2022-07-23T08:07:15;7.33;;;6.63;;
7291;SDS011;3687;47.648;8.204;2022-07-23T08:09:41;6.73;;;6.13;;
7291;SDS011;3687;47.648;8.204;2022-07-23T08:12:06;6.47;;;5.97;;
7291;SDS011;3687;47.648;8.204;2022-07-23T08:14:32;6.27;;;5.77;;
7291;SDS011;3687;47.648;8.204;2022-07-23T08:16:58;6.83;;;6.23;;
7291;SDS011;3687;47.648;8.204;2022-07-23T08:19:24;6.53;;;6.03;;
7291;SDS011;3687;47.648;8.204;2022-07-23T08:21:49;6.57;;;5.93;;
7291;SDS011;3687;47.648;8.204;2022-07-23T08:24:15;6.17;;;5.57;;
7291;SDS011;3687;47.648;8.204;2022-07-23T08:26:40;6.93;;;6.17;;
7291;SDS011;3687;47.648;8.204;2022-07-23T08:29:06;8.83;;;6.37;;
7291;SDS011;3687;47.648;8.204;2022-07-23T08:31:32;7.73;;;7.07;;
7291;SDS011;3687;47.648;8.204;2022-07-23T08:33:58;7.53;;;6.83;;
7291;SDS011;3687;47.648;8.204;2022-07-23T08:36:24;7.37;;;6.60;;
7291;SDS011;3687;47.648;8.204;2022-07-23T08:38:52;7.03;;;6.43;;
7291;SDS011;3687;47.648;8.204;2022-07-23T08:41:18;6.73;;;6.10;;
7291;SDS011;3687;47.648;8.204;2022-07-23T08:43:44;6.47;;;5.87;;
7291;SDS011;3687;47.648;8.204;2022-07-23T08:46:10;7.13;;;6.40;;
7291;SDS011;3687;47.648;8.204;2022-07-23T08:48:37;6.70;;;6.10;;
7291;SDS011;3687;47.648;8.204;2022-07-23T08:51:03;6.10;;;5.50;;
7291;SDS011;3687;47.648;8.204;2022-07-23T08:53:29;6.73;;;6.07;;
7291;SDS011;3687;47.648;8.204;2022-07-23T08:55:58;6.90;;;6.20;;
7291;SDS011;3687;47.648;8.204;2022-07-23T08:58:26;8.10;;;7.30;;
7291;SDS011;3687;47.648;8.204;2022-07-23T09:00:52;7.50;;;6.80;;
7291;SDS011;3687;47.648;8.204;2022-07-23T09:03:18;7.20;;;6.60;;
7291;SDS011;3687;47.648;8.204;2022-07-23T09:05:45;7.17;;;6.47;;
7291;SDS011;3687;47.648;8.204;2022-07-23T09:10:45;7.40;;;6.63;;
7291;SDS011;3687;47.648;8.204;2022-07-23T09:15:58;7.40;;;6.80;;
7291;SDS011;3687;47.648;8.204;2022-07-23T09:18:32;7.50;;;6.80;;
7291;SDS011;3687;47.648;8.204;2022-07-23T09:21:10;7.13;;;6.43;;
7291;SDS011;3687;47.648;8.204;2022-07-23T09:23:44;7.40;;;6.70;;
7291;SDS011;3687;47.648;8.204;2022-07-23T09:28:55;7.90;;;7.20;;
7291;SDS011;3687;47.648;8.204;2022-07-23T09:31:23;7.73;;;7.13;;
7291;SDS011;3687;47.648;8.204;2022-07-23T09:33:49;8.10;;;7.40;;
7291;SDS011;3687;47.648;8.204;2022-07-23T09:36:15;7.47;;;6.77;;
7291;SDS011;3687;47.648;8.204;2022-07-23T09:38:51;7.97;;;7.03;;
7291;SDS011;3687;47.648;8.204;2022-07-23T09:41:17;7.30;;;6.63;;
7291;SDS011;3687;47.648;8.204;2022-07-23T09:43:43;7.40;;;6.80;;
7291;SDS011;3687;47.648;8.204;2022-07-23T09:46:26;7.30;;;6.60;;
7291;SDS011;3687;47.648;8.204;2022-07-23T09:48:53;7.90;;;7.10;;
7291;SDS011;3687;47.648;8.204;2022-07-23T09:51:21;7.70;;;7.00;;
7291;SDS011;3687;47.648;8.204;2022-07-23T09:54:01;8.60;;;7.80;;
7291;SDS011;3687;47.648;8.204;2022-07-23T09:56:27;8.40;;;7.30;;
7291;SDS011;3687;47.648;8.204;2022-07-23T09:58:53;7.90;;;7.20;;
7291;SDS011;3687;47.648;8.204;2022-07-23T10:01:33;8.33;;;7.57;;
7291;SDS011;3687;47.648;8.204;2022-07-23T10:03:59;8.80;;;8.00;;
7291;SDS011;3687;47.648;8.204;2022-07-23T10:06:26;7.30;;;6.67;;
7291;SDS011;3687;47.648;8.204;2022-07-23T10:08:52;6.93;;;6.33;;
7291;SDS011;3687;47.648;8.204;2022-07-23T10:11:23;7.70;;;7.10;;
7291;SDS011;3687;47.648;8.204;2022-07-23T10:13:49;8.00;;;6.67;;
7291;SDS011;3687;47.648;8.204;2022-07-23T10:16:22;9.07;;;8.23;;
7291;SDS011;3687;47.648;8.204;2022-07-23T10:18:48;9.50;;;7.87;;
7291;SDS011;3687;47.648;8.204;2022-07-23T10:21:16;8.60;;;7.63;;
7291;SDS011;3687;47.648;8.204;2022-07-23T10:27:14;8.33;;;7.53;;
7291;SDS011;3687;47.648;8.204;2022-07-23T10:29:51;10.50;;;7.73;;
7291;SDS011;3687;47.648;8.204;2022-07-23T10:38:37;10.00;;;8.37;;
7291;SDS011;3687;47.648;8.204;2022-07-23T10:41:15;8.00;;;7.40;;
7291;SDS011;3687;47.648;8.204;2022-07-23T10:46:54;7.80;;;7.10;;
7291;SDS011;3687;47.648;8.204;2022-07-23T10:49:30;7.87;;;7.27;;
7291;SDS011;3687;47.648;8.204;2022-07-23T10:57:49;7.27;;;6.67;;
7291;SDS011;3687;47.648;8.204;2022-07-23T11:00:25;7.57;;;6.87;;
7291;SDS011;3687;47.648;8.204;2022-07-23T11:02:55;8.53;;;7.73;;
7291;SDS011;3687;47.648;8.204;2022-07-23T11:05:23;8.13;;;7.43;;
7291;SDS011;3687;47.648;8.204;2022-07-23T11:10:33;8.07;;;7.30;;
7291;SDS011;3687;47.648;8.204;2022-07-23T11:26:50;8.03;;;7.30;;
7291;SDS011;3687;47.648;8.204;2022-07-23T11:29:57;8.37;;;7.10;;
7291;SDS011;3687;47.648;8.204;2022-07-23T11:32:11;7.70;;;7.00;;
7291;SDS011;3687;47.648;8.204;2022-07-23T11:34:52;8.23;;;7.43;;
7291;SDS011;3687;47.648;8.204;2022-07-23T11:37:39;7.90;;;7.20;;
7291;SDS011;3687;47.648;8.204;2022-07-23T11:40:13;7.87;;;7.17;;
7291;SDS011;3687;47.648;8.204;2022-07-23T11:42:54;7.40;;;6.73;;
7291;SDS011;3687;47.648;8.204;2022-07-23T11:45:21;7.83;;;7.07;;
7291;SDS011;3687;47.648;8.204;2022-07-23T11:47:48;7.27;;;6.53;;
7291;SDS011;3687;47.648;8.204;2022-07-23T11:50:13;7.87;;;7.17;;
7291;SDS011;3687;47.648;8.204;2022-07-23T11:52:39;7.87;;;7.07;;
7291;SDS011;3687;47.648;8.204;2022-07-23T11:55:06;7.20;;;6.53;;
7291;SDS011;3687;47.648;8.204;2022-07-23T11:57:37;7.43;;;6.73;;
7291;SDS011;3687;47.648;8.204;2022-07-23T12:02:42;7.47;;;6.77;;
7291;SDS011;3687;47.648;8.204;2022-07-23T12:05:13;7.50;;;6.80;;
7291;SDS011;3687;47.648;8.204;2022-07-23T12:07:41;7.50;;;6.90;;
7291;SDS011;3687;47.648;8.204;2022-07-23T12:10:18;7.40;;;6.70;;
7291;SDS011;3687;47.648;8.204;2022-07-23T12:12:48;6.43;;;5.93;;
7291;SDS011;3687;47.648;8.204;2022-07-23T12:15:17;7.53;;;6.77;;
7291;SDS011;3687;47.648;8.204;2022-07-23T12:17:45;7.30;;;6.60;;
7291;SDS011;3687;47.648;8.204;2022-07-23T12:20:12;6.90;;;6.30;;
7291;SDS011;3687;47.648;8.204;2022-07-23T12:22:41;7.83;;;7.13;;
7291;SDS011;3687;47.648;8.204;2022-07-23T12:25:16;7.57;;;6.77;;
7291;SDS011;3687;47.648;8.204;2022-07-23T12:27:42;6.87;;;6.27;;
7291;SDS011;3687;47.648;8.204;2022-07-23T12:30:15;7.73;;;6.70;;
7291;SDS011;3687;47.648;8.204;2022-07-23T12:32:43;7.13;;;6.53;;
7291;SDS011;3687;47.648;8.204;2022-07-23T12:35:10;7.73;;;7.03;;
7291;SDS011;3687;47.648;8.204;2022-07-23T12:37:36;7.47;;;6.50;;
7291;SDS011;3687;47.648;8.204;2022-07-23T12:42:48;7.73;;;6.90;;
7291;SDS011;3687;47.648;8.204;2022-07-23T12:45:16;7.67;;;6.97;;
7291;SDS011;3687;47.648;8.204;2022-07-23T12:50:40;7.10;;;6.47;;
7291;SDS011;3687;47.648;8.204;2022-07-23T12:53:11;7.20;;;6.50;;
7291;SDS011;3687;47.648;8.204;2022-07-23T12:55:42;6.93;;;6.30;;
7291;SDS011;3687;47.648;8.204;2022-07-23T13:01:00;7.50;;;6.80;;
7291;SDS011;3687;47.648;8.204;2022-07-23T13:03:29;7.83;;;7.03;;
7291;SDS011;3687;47.648;8.204;2022-07-23T13:05:57;7.87;;;7.20;;
7291;SDS011;3687;47.648;8.204;2022-07-23T13:08:24;8.37;;;6.60;;
7291;SDS011;3687;47.648;8.204;2022-07-23T13:10:50;7.20;;;6.60;;
7291;SDS011;3687;47.648;8.204;2022-07-23T13:13:17;7.93;;;6.73;;
7291;SDS011;3687;47.648;8.204;2022-07-23T13:15:45;7.47;;;6.80;;
7291;SDS011;3687;47.648;8.204;2022-07-23T13:18:11;7.27;;;6.67;;
7291;SDS011;3687;47.648;8.204;2022-07-23T13:20:37;8.13;;;7.20;;
7291;SDS011;3687;47.648;8.204;2022-07-23T13:23:04;7.17;;;6.67;;
7291;SDS011;3687;47.648;8.204;2022-07-23T13:25:30;7.47;;;6.77;;
7291;SDS011;3687;47.648;8.204;2022-07-23T13:27:56;7.20;;;6.60;;
7291;SDS011;3687;47.648;8.204;2022-07-23T13:30:21;7.57;;;6.87;;
7291;SDS011;3687;47.648;8.204;2022-07-23T13:32:47;7.23;;;6.67;;
7291;SDS011;3687;47.648;8.204;2022-07-23T13:35:13;7.60;;;6.90;;
7291;SDS011;3687;47.648;8.204;2022-07-23T13:37:39;7.27;;;6.60;;
7291;SDS011;3687;47.648;8.204;2022-07-23T13:40:05;8.43;;;6.87;;
7291;SDS011;3687;47.648;8.204;2022-07-23T13:42:31;6.47;;;5.97;;
7291;SDS011;3687;47.648;8.204;2022-07-23T13:44:57;7.97;;;7.27;;
7291;SDS011;3687;47.648;8.204;2022-07-23T13:47:22;9.13;;;6.67;;
7291;SDS011;3687;47.648;8.204;2022-07-23T13:49:48;7.27;;;6.67;;
7291;SDS011;3687;47.648;8.204;2022-07-23T13:52:13;7.30;;;6.70;;
7291;SDS011;3687;47.648;8.204;2022-07-23T13:54:39;7.87;;;7.17;;
7291;SDS011;3687;47.648;8.204;2022-07-23T13:57:04;7.43;;;6.73;;
7291;SDS011;3687;47.648;8.204;2022-07-23T13:59:30;7.60;;;6.90;;
7291;SDS011;3687;47.648;8.204;2022-07-23T14:01:55;7.07;;;6.37;;
7291;SDS011;3687;47.648;8.204;2022-07-23T14:04:21;7.13;;;6.53;;
7291;SDS011;3687;47.648;8.204;2022-07-23T14:06:47;7.47;;;6.87;;
7291;SDS011;3687;47.648;8.204;2022-07-23T14:09:13;7.03;;;6.43;;
7291;SDS011;3687;47.648;8.204;2022-07-23T14:11:38;7.43;;;6.83;;
7291;SDS011;3687;47.648;8.204;2022-07-23T14:14:04;6.63;;;6.03;;
7291;SDS011;3687;47.648;8.204;2022-07-23T14:16:30;7.50;;;6.80;;
7291;SDS011;3687;47.648;8.204;2022-07-23T14:18:56;7.43;;;6.73;;
7291;SDS011;3687;47.648;8.204;2022-07-23T14:21:21;7.37;;;6.67;;
7291;SDS011;3687;47.648;8.204;2022-07-23T14:23:47;9.13;;;6.23;;
7291;SDS011;3687;47.648;8.204;2022-07-23T14:26:12;6.77;;;6.17;;
7291;SDS011;3687;47.648;8.204;2022-07-23T14:28:38;6.57;;;6.07;;
7291;SDS011;3687;47.648;8.204;2022-07-23T14:31:04;6.97;;;6.43;;
7291;SDS011;3687;47.648;8.204;2022-07-23T14:33:29;7.07;;;6.43;;
7291;SDS011;3687;47.648;8.204;2022-07-23T14:35:55;7.00;;;6.30;;
7291;SDS011;3687;47.648;8.204;2022-07-23T14:38:20;7.50;;;6.77;;
7291;SDS011;3687;47.648;8.204;2022-07-23T14:40:46;6.83;;;6.23;;
7291;SDS011;3687;47.648;8.204;2022-07-23T14:43:11;7.37;;;6.63;;
7291;SDS011;3687;47.648;8.204;2022-07-23T14:45:37;7.13;;;6.53;;
7291;SDS011;3687;47.648;8.204;2022-07-23T14:48:03;6.17;;;5.57;;
7291;SDS011;3687;47.648;8.204;2022-07-23T14:50:28;6.27;;;5.77;;
7291;SDS011;3687;47.648;8.204;2022-07-23T14:52:54;7.40;;;6.13;;
7291;SDS011;3687;47.648;8.204;2022-07-23T14:55:20;6.47;;;5.87;;
7291;SDS011;3687;47.648;8.204;2022-07-23T14:57:45;7.47;;;6.77;;
7291;SDS011;3687;47.648;8.204;2022-07-23T15:00:11;6.57;;;5.97;;
7291;SDS011;3687;47.648;8.204;2022-07-23T15:02:37;6.97;;;6.30;;
7291;SDS011;3687;47.648;8.204;2022-07-23T15:05:03;5.80;;;5.30;;
7291;SDS011;3687;47.648;8.204;2022-07-23T15:07:29;7.20;;;5.57;;
7291;SDS011;3687;47.648;8.204;2022-07-23T15:09:55;5.87;;;5.37;;
7291;SDS011;3687;47.648;8.204;2022-07-23T15:12:21;7.07;;;6.10;;
7291;SDS011;3687;47.648;8.204;2022-07-23T15:14:47;7.27;;;6.17;;
7291;SDS011;3687;47.648;8.204;2022-07-23T15:17:13;6.27;;;5.67;;
7291;SDS011;3687;47.648;8.204;2022-07-23T15:19:38;6.43;;;5.77;;
7291;SDS011;3687;47.648;8.204;2022-07-23T15:22:04;6.50;;;5.90;;
7291;SDS011;3687;47.648;8.204;2022-07-23T15:24:30;7.37;;;6.67;;
7291;SDS011;3687;47.648;8.204;2022-07-23T15:26:55;6.67;;;6.07;;
7291;SDS011;3687;47.648;8.204;2022-07-23T15:29:21;7.03;;;6.43;;
7291;SDS011;3687;47.648;8.204;2022-07-23T15:31:47;6.80;;;6.10;;
7291;SDS011;3687;47.648;8.204;2022-07-23T15:34:13;9.73;;;6.03;;
7291;SDS011;3687;47.648;8.204;2022-07-23T15:36:39;7.10;;;6.40;;
7291;SDS011;3687;47.648;8.204;2022-07-23T15:39:05;7.37;;;6.77;;
7291;SDS011;3687;47.648;8.204;2022-07-23T15:41:31;7.10;;;6.50;;
7291;SDS011;3687;47.648;8.204;2022-07-23T15:43:56;6.90;;;6.30;;
7291;SDS011;3687;47.648;8.204;2022-07-23T15:46:22;6.70;;;6.10;;
7291;SDS011;3687;47.648;8.204;2022-07-23T15:48:48;6.37;;;5.87;;
7291;SDS011;3687;47.648;8.204;2022-07-23T15:51:14;6.80;;;6.10;;
7291;SDS011;3687;47.648;8.204;2022-07-23T15:53:40;6.73;;;6.20;;
7291;SDS011;3687;47.648;8.204;2022-07-23T15:56:06;6.50;;;5.90;;
7291;SDS011;3687;47.648;8.204;2022-07-23T15:58:33;6.53;;;5.93;;
7291;SDS011;3687;47.648;8.204;2022-07-23T16:00:58;6.83;;;6.23;;
7291;SDS011;3687;47.648;8.204;2022-07-23T16:03:28;6.80;;;6.20;;
7291;SDS011;3687;47.648;8.204;2022-07-23T16:05:54;6.27;;;5.77;;
7291;SDS011;3687;47.648;8.204;2022-07-23T16:08:20;7.03;;;6.37;;
7291;SDS011;3687;47.648;8.204;2022-07-23T16:10:46;7.27;;;6.50;;
7291;SDS011;3687;47.648;8.204;2022-07-23T16:13:12;6.40;;;5.90;;
7291;SDS011;3687;47.648;8.204;2022-07-23T16:15:37;6.60;;;5.80;;
7291;SDS011;3687;47.648;8.204;2022-07-23T16:18:05;7.17;;;6.47;;
7291;SDS011;3687;47.648;8.204;2022-07-23T16:20:33;6.20;;;5.80;;
7291;SDS011;3687;47.648;8.204;2022-07-23T16:22:59;6.83;;;6.23;;
7291;SDS011;3687;47.648;8.204;2022-07-23T16:25:25;8.43;;;6.37;;
7291;SDS011;3687;47.648;8.204;2022-07-23T16:27:51;6.70;;;6.20;;
7291;SDS011;3687;47.648;8.204;2022-07-23T16:30:16;6.73;;;6.13;;
7291;SDS011;3687;47.648;8.204;2022-07-23T16:32:42;7.10;;;6.40;;
7291;SDS011;3687;47.648;8.204;2022-07-23T16:35:08;6.60;;;6.00;;
7291;SDS011;3687;47.648;8.204;2022-07-23T16:37:34;6.87;;;6.27;;
7291;SDS011;3687;47.648;8.204;2022-07-23T16:40:00;6.33;;;5.70;;
7291;SDS011;3687;47.648;8.204;2022-07-23T16:42:26;6.73;;;6.03;;
7291;SDS011;3687;47.648;8.204;2022-07-23T16:44:53;6.57;;;6.07;;
7291;SDS011;3687;47.648;8.204;2022-07-23T16:47:19;6.80;;;6.20;;
7291;SDS011;3687;47.648;8.204;2022-07-23T16:49:45;6.43;;;5.83;;
7291;SDS011;3687;47.648;8.204;2022-07-23T16:52:11;6.40;;;5.90;;
7291;SDS011;3687;47.648;8.204;2022-07-23T16:54:37;6.57;;;6.00;;
7291;SDS011;3687;47.648;8.204;2022-07-23T16:57:02;6.90;;;6.37;;
7291;SDS011;3687;47.648;8.204;2022-07-23T16:59:28;6.83;;;6.23;;
7291;SDS011;3687;47.648;8.204;2022-07-23T17:01:53;7.00;;;6.40;;
7291;SDS011;3687;47.648;8.204;2022-07-23T17:04:19;5.93;;;5.37;;
7291;SDS011;3687;47.648;8.204;2022-07-23T17:06:45;6.53;;;5.93;;
7291;SDS011;3687;47.648;8.204;2022-07-23T17:09:10;7.10;;;6.20;;
7291;SDS011;3687;47.648;8.204;2022-07-23T17:11:36;6.83;;;6.23;;